Time;durP1;ratioP1;P1;durP2;ratioP2;P2;SDS_P1;SDS_P2;PMS_P1;PMS_P2;Temp;Humidity;BMP_temperature;BMP_pressure;BME280_temperature;BME280_humidity;BME280_pressure;Samples;Min_cycle;Max_cycle;Signal;HPM_P1;HPM_P2
2022/01/24 00:01:26;;;;;;;17.60;16.80;;;5.10;80.10;;;;;;4952573;28;20393;-82
2022/01/24 00:03:56;;;;;;;17.63;16.83;;;5.20;80.10;;;;;;4954483;28;20042;-82
2022/01/24 00:06:25;;;;;;;17.95;17.15;;;5.20;80.10;;;;;;4953540;29;20389;-82
2022/01/24 00:08:51;;;;;;;18.13;17.27;;;5.20;80.10;;;;;;4953864;28;20046;-82
2022/01/24 00:11:22;;;;;;;17.00;16.20;;;5.20;80.00;;;;;;4949702;29;20027;-82
2022/01/24 00:27:10;;;;;;;17.23;16.33;;;5.10;80.10;;;;;;4954071;28;20038;-82
2022/01/24 00:29:36;;;;;;;17.03;16.23;;;5.10;80.10;;;;;;4951874;29;20054;-81
2022/01/24 00:32:02;;;;;;;17.90;17.10;;;5.10;80.20;;;;;;4952067;28;20044;-82
2022/01/24 00:34:28;;;;;;;19.03;17.70;;;5.00;80.20;;;;;;4953331;28;20079;-82
2022/01/24 00:36:55;;;;;;;18.47;17.47;;;5.00;80.20;;;;;;4950779;28;20406;-82
2022/01/24 00:39:21;;;;;;;18.10;17.30;;;5.00;81.00;;;;;;4945209;29;20050;-82
2022/01/24 00:46:53;;;;;;;18.30;17.33;;;5.00;80.30;;;;;;4953719;28;20035;-82
2022/01/24 00:54:44;;;;;;;17.80;16.90;;;4.90;80.40;;;;;;4948067;29;20065;-82
2022/01/24 00:57:11;;;;;;;17.80;16.90;;;4.90;80.30;;;;;;4952636;28;20050;-82
2022/01/24 00:59:37;;;;;;;17.47;16.67;;;4.80;80.30;;;;;;4966865;28;20043;-81
2022/01/24 01:02:04;;;;;;;17.30;16.50;;;4.80;80.50;;;;;;4952614;28;20031;-82
2022/01/24 01:05:28;;;;;;;17.97;17.07;;;4.80;80.50;;;;;;4967824;28;20548;-82
2022/01/24 01:07:37;;;;;;;16.97;16.17;;;4.80;80.50;;;;;;4936784;28;20395;-81
2022/01/24 01:18:21;;;;;;;17.07;16.27;;;4.60;80.40;;;;;;4954622;28;20062;-82
2022/01/24 01:23:17;;;;;;;17.77;16.90;;;4.50;80.50;;;;;;4955331;28;20046;-81
2022/01/24 01:25:44;;;;;;;17.07;16.27;;;4.50;80.50;;;;;;4953535;29;20035;-82
2022/01/24 01:28:11;;;;;;;18.10;16.90;;;4.50;80.50;;;;;;4967022;28;20023;-82
2022/01/24 01:30:42;;;;;;;15.17;14.47;;;4.40;80.50;;;;;;4950342;28;20051;-81
2022/01/24 01:33:18;;;;;;;17.10;16.30;;;4.30;80.60;;;;;;4953543;29;20046;-82
2022/01/24 01:57:17;;;;;;;15.83;15.13;;;4.00;80.70;;;;;;4959751;28;20038;-81
2022/01/24 01:59:44;;;;;;;17.80;16.90;;;4.00;80.80;;;;;;4955294;29;20091;-81
2022/01/24 02:02:10;;;;;;;15.83;15.13;;;4.00;80.80;;;;;;4953309;28;20035;-81
2022/01/24 02:04:37;;;;;;;17.30;16.50;;;4.00;80.70;;;;;;4955076;29;20035;-81
2022/01/24 02:07:03;;;;;;;16.83;16.03;;;4.00;80.70;;;;;;4922532;29;20109;-81
2022/01/24 02:09:33;;;;;;;16.50;15.73;;;4.00;80.80;;;;;;4956341;29;20038;-82
2022/01/24 02:12:00;;;;;;;16.02;15.32;;;4.00;80.70;;;;;;4955411;28;20445;-82
2022/01/24 02:14:33;;;;;;;17.00;16.20;;;4.00;80.70;;;;;;4955629;29;20031;-82
2022/01/24 02:17:07;;;;;;;16.93;16.13;;;4.00;80.80;;;;;;4954922;28;20027;-81
2022/01/24 02:22:43;;;;;;;16.90;16.10;;;4.00;80.80;;;;;;4966198;28;20031;-81
2022/01/24 02:25:11;;;;;;;16.33;15.57;;;3.90;80.70;;;;;;4953428;28;20035;-81
2022/01/24 02:27:45;;;;;;;17.37;16.57;;;3.90;80.70;;;;;;4955385;28;20039;-82
2022/01/24 02:32:40;;;;;;;16.27;15.57;;;3.80;80.80;;;;;;4955943;28;20478;-81
2022/01/24 02:35:07;;;;;;;16.87;16.07;;;3.80;80.80;;;;;;4956474;29;20031;-82
2022/01/24 02:37:33;;;;;;;17.80;16.87;;;3.80;80.90;;;;;;4955297;29;20062;-81
2022/01/24 02:40:10;;;;;;;17.73;16.83;;;3.80;80.90;;;;;;4954432;29;20109;-82
2022/01/24 02:48:23;;;;;;;15.90;15.20;;;3.80;80.80;;;;;;4958758;28;20093;-81
2022/01/24 02:51:08;;;;;;;16.00;15.30;;;3.80;80.80;;;;;;4941215;29;20047;-81
2022/01/24 02:53:35;;;;;;;17.10;16.30;;;3.80;80.80;;;;;;4947949;29;20039;-82
2022/01/24 02:56:02;;;;;;;17.60;16.70;;;3.80;81.60;;;;;;4954318;28;20058;-81
2022/01/24 02:58:28;;;;;;;16.87;15.77;;;3.80;80.90;;;;;;4955080;28;20035;-82
2022/01/24 03:00:55;;;;;;;17.23;16.43;;;3.80;80.80;;;;;;4968676;28;20490;-81
2022/01/24 03:03:21;;;;;;;17.70;16.83;;;3.80;80.80;;;;;;4954456;29;20046;-81
2022/01/24 03:05:47;;;;;;;17.60;16.80;;;3.70;80.80;;;;;;4954950;29;20039;-82
2022/01/24 03:08:14;;;;;;;16.47;15.67;;;3.80;80.90;;;;;;4954738;29;20062;-81
2022/01/24 03:10:51;;;;;;;17.23;16.43;;;3.70;80.80;;;;;;4954444;29;20489;-81
2022/01/24 03:13:21;;;;;;;16.90;16.10;;;3.70;80.80;;;;;;4966390;28;20047;-81
2022/01/24 03:15:49;;;;;;;17.87;16.93;;;3.60;80.80;;;;;;4953770;28;20038;-81
2022/01/24 03:18:15;;;;;;;16.33;15.60;;;3.60;80.90;;;;;;4949087;29;20035;-81
2022/01/24 03:20:41;;;;;;;16.77;15.97;;;3.60;81.00;;;;;;4948562;29;20051;-82
2022/01/24 03:23:08;;;;;;;17.40;16.57;;;3.50;81.00;;;;;;4953356;29;20485;-82
2022/01/24 03:25:34;;;;;;;17.40;16.60;;;3.40;81.00;;;;;;4953581;29;20054;-82
2022/01/24 03:28:02;;;;;;;16.93;16.13;;;3.40;81.10;;;;;;4952619;29;20401;-81
2022/01/24 03:30:28;;;;;;;17.10;16.30;;;3.40;81.20;;;;;;4954931;28;20035;-81
2022/01/24 03:32:54;;;;;;;16.47;15.70;;;3.30;81.20;;;;;;4946747;29;20042;-81
2022/01/24 03:35:20;;;;;;;17.30;16.30;;;3.30;81.20;;;;;;4967323;28;20027;-81
2022/01/24 03:37:46;;;;;;;17.07;16.17;;;3.30;81.20;;;;;;4956026;28;20031;-82
2022/01/24 03:40:12;;;;;;;15.83;15.03;;;3.30;81.20;;;;;;4949345;29;20518;-80
2022/01/24 03:42:38;;;;;;;16.33;15.43;;;3.20;81.20;;;;;;4953434;28;20031;-81
2022/01/24 03:45:07;;;;;;;17.00;16.10;;;3.20;81.20;;;;;;4949846;28;20027;-82
2022/01/24 03:50:06;;;;;;;15.97;15.13;;;3.20;81.30;;;;;;4966390;28;20054;-80
2022/01/24 03:52:32;;;;;;;17.20;16.30;;;3.20;81.20;;;;;;4968699;28;20049;-80
2022/01/24 03:54:59;;;;;;;17.30;16.50;;;3.20;81.20;;;;;;4952636;29;20046;-79
2022/01/24 03:57:25;;;;;;;17.77;16.97;;;3.30;81.20;;;;;;4953101;28;20035;-81
2022/01/24 03:59:52;;;;;;;18.40;17.27;;;3.30;81.20;;;;;;4950363;29;20028;-80
2022/01/24 04:02:20;;;;;;;17.63;16.63;;;3.30;81.20;;;;;;4952877;28;20043;-80
2022/01/24 04:04:46;;;;;;;17.07;16.27;;;3.40;81.20;;;;;;4952826;29;20359;-81
2022/01/24 04:07:12;;;;;;;17.13;16.33;;;3.40;81.20;;;;;;4952176;28;20410;-81
2022/01/24 04:09:40;;;;;;;16.57;15.77;;;3.40;81.20;;;;;;4956122;28;20042;-81
2022/01/24 04:12:08;;;;;;;16.77;15.97;;;3.40;81.10;;;;;;4941078;28;20030;-81
2022/01/24 04:22:16;;;;;;;18.00;17.13;;;3.40;81.00;;;;;;4963871;28;20039;-81
2022/01/24 04:24:43;;;;;;;17.60;16.70;;;3.40;81.10;;;;;;4951110;28;20039;-81
2022/01/24 04:27:09;;;;;;;16.67;15.87;;;3.30;81.00;;;;;;4951190;29;20039;-81
2022/01/24 04:29:35;;;;;;;17.47;16.67;;;3.30;81.00;;;;;;4951449;29;20031;-81
2022/01/24 04:32:01;;;;;;;17.30;16.50;;;3.30;81.00;;;;;;4953103;28;20035;-81
2022/01/24 04:34:27;;;;;;;17.00;16.20;;;3.30;81.10;;;;;;4950911;29;20027;-80
2022/01/24 04:36:53;;;;;;;16.47;15.73;;;3.20;81.20;;;;;;4951030;29;20505;-80
2022/01/24 04:39:20;;;;;;;16.70;15.90;;;3.20;81.10;;;;;;4941100;29;20034;-80
2022/01/24 04:41:49;;;;;;;16.20;15.50;;;3.20;81.10;;;;;;4953799;28;20031;-80
2022/01/24 04:47:16;;;;;;;17.43;16.53;;;3.20;81.10;;;;;;4950967;28;20512;-80
2022/01/24 04:54:53;;;;;;;18.17;16.70;;;3.20;81.10;;;;;;4950987;28;20505;-79
2022/01/24 04:57:25;;;;;;;16.03;15.33;;;3.10;81.10;;;;;;4951649;28;20039;-80
2022/01/24 04:59:54;;;;;;;17.33;16.43;;;3.10;81.10;;;;;;4936348;29;20028;-81
2022/01/24 05:02:21;;;;;;;16.53;15.73;;;3.10;81.10;;;;;;4934904;28;20034;-80
2022/01/24 05:04:48;;;;;;;17.10;16.20;;;3.10;81.10;;;;;;4950175;29;20039;-80
2022/01/24 05:07:14;;;;;;;16.60;15.80;;;3.10;81.10;;;;;;4949625;29;20027;-79
2022/01/24 05:09:45;;;;;;;16.37;15.60;;;3.10;81.20;;;;;;4950542;29;20054;-79
2022/01/24 05:12:24;;;;;;;17.02;16.23;;;3.10;81.30;;;;;;4950673;29;20031;-79
2022/01/24 05:25:54;;;;;;;16.33;15.57;;;2.90;81.10;;;;;;4965085;28;20036;-81
2022/01/24 05:28:20;;;;;;;16.47;15.70;;;2.90;81.20;;;;;;4951778;29;20038;-80
2022/01/24 05:30:47;;;;;;;17.93;17.00;;;2.90;81.20;;;;;;4952704;28;20036;-79
2022/01/24 05:33:13;;;;;;;16.33;15.53;;;2.90;81.30;;;;;;4933429;29;20048;-80
2022/01/24 05:35:39;;;;;;;16.00;15.30;;;2.80;81.30;;;;;;4953462;29;20466;-80
2022/01/24 05:38:05;;;;;;;16.63;15.87;;;2.80;81.30;;;;;;4942779;29;20040;-80
2022/01/24 05:40:31;;;;;;;16.20;15.43;;;2.80;81.30;;;;;;4953351;29;20050;-80
2022/01/24 05:42:57;;;;;;;16.83;16.03;;;2.80;81.40;;;;;;4961219;28;20034;-80
2022/01/24 05:45:23;;;;;;;15.77;15.07;;;2.70;81.40;;;;;;4941922;28;20052;-80
2022/01/24 05:47:49;;;;;;;17.23;16.43;;;2.70;81.40;;;;;;4950772;29;20047;-80
2022/01/24 05:50:16;;;;;;;15.90;15.20;;;2.70;81.50;;;;;;4953292;29;20124;-80
2022/01/24 05:52:42;;;;;;;17.20;16.30;;;2.60;81.40;;;;;;4950120;29;20050;-80
2022/01/24 05:55:09;;;;;;;17.43;15.97;;;2.60;81.40;;;;;;4959553;28;20093;-80
2022/01/24 05:57:36;;;;;;;17.37;16.57;;;2.60;81.50;;;;;;4946816;28;20035;-80
2022/01/24 06:00:05;;;;;;;15.10;14.40;;;2.70;81.60;;;;;;4952652;29;20039;-80
2022/01/24 06:02:31;;;;;;;16.07;15.27;;;2.70;81.50;;;;;;4933400;29;20035;-80
2022/01/24 06:04:57;;;;;;;16.53;15.73;;;2.70;81.40;;;;;;4953582;29;20231;-80
2022/01/24 06:07:23;;;;;;;18.43;17.40;;;2.70;81.40;;;;;;4952860;29;20031;-80
2022/01/24 06:09:49;;;;;;;16.30;15.50;;;2.70;81.40;;;;;;4962546;28;20027;-80
2022/01/24 06:12:15;;;;;;;17.77;16.87;;;2.70;81.40;;;;;;4956826;28;20497;-80
2022/01/24 06:14:41;;;;;;;16.77;15.97;;;2.80;81.40;;;;;;4953355;28;20027;-80
2022/01/24 06:17:08;;;;;;;18.07;17.17;;;2.80;81.30;;;;;;4932506;29;20035;-80
2022/01/24 06:19:34;;;;;;;16.87;15.87;;;2.80;81.30;;;;;;4932722;29;20047;-80
2022/01/24 06:22:00;;;;;;;18.07;17.17;;;2.80;81.30;;;;;;4949031;29;20046;-80
2022/01/24 06:24:26;;;;;;;18.63;17.17;;;2.80;81.30;;;;;;4964950;28;20031;-80
2022/01/24 06:26:52;;;;;;;18.53;17.27;;;2.80;81.40;;;;;;4940074;29;20470;-80
2022/01/24 06:29:18;;;;;;;17.70;16.70;;;2.80;81.40;;;;;;4952486;29;20031;-80
2022/01/24 06:31:44;;;;;;;17.07;16.27;;;2.70;81.40;;;;;;4949080;28;20043;-80
2022/01/24 06:34:10;;;;;;;17.83;16.93;;;2.80;81.40;;;;;;4944406;29;20038;-80
2022/01/24 06:36:37;;;;;;;17.43;16.63;;;2.80;81.30;;;;;;4949469;29;20394;-80
2022/01/24 06:39:05;;;;;;;16.90;16.10;;;2.70;81.30;;;;;;4956112;29;20504;-81
2022/01/24 06:41:34;;;;;;;16.63;15.83;;;2.70;81.40;;;;;;4955364;29;20054;-80
2022/01/24 06:44:00;;;;;;;17.60;16.70;;;2.70;81.40;;;;;;4936032;29;20051;-80
2022/01/24 06:46:27;;;;;;;17.50;16.40;;;2.70;82.20;;;;;;4953544;28;20112;-80
2022/01/24 06:48:53;;;;;;;17.73;16.73;;;2.70;81.40;;;;;;4938600;29;20031;-80
2022/01/24 06:51:19;;;;;;;16.60;15.80;;;2.60;81.40;;;;;;4953560;29;20409;-80
2022/01/24 06:53:47;;;;;;;18.17;17.13;;;2.60;81.40;;;;;;4957182;28;20061;-82
2022/01/24 06:56:14;;;;;;;16.17;15.37;;;2.60;81.40;;;;;;4955449;28;20042;-80
2022/01/24 06:58:40;;;;;;;17.53;16.63;;;2.60;81.40;;;;;;4956186;28;20070;-80
2022/01/24 07:01:06;;;;;;;17.37;16.57;;;2.60;81.40;;;;;;4955262;28;20063;-80
2022/01/24 07:03:32;;;;;;;18.27;17.33;;;2.60;81.40;;;;;;4965640;28;20034;-80
2022/01/24 07:05:58;;;;;;;17.93;17.03;;;2.60;81.40;;;;;;4943849;29;20027;-81
2022/01/24 07:08:24;;;;;;;17.07;16.27;;;2.60;81.40;;;;;;4941949;29;20498;-82
2022/01/24 07:10:51;;;;;;;17.23;16.40;;;2.60;81.40;;;;;;4955167;29;20039;-82
2022/01/24 07:13:19;;;;;;;18.43;17.33;;;2.60;81.40;;;;;;4952442;28;20027;-80
2022/01/24 07:15:52;;;;;;;18.57;17.43;;;2.60;81.50;;;;;;4952111;28;20050;-80
2022/01/24 07:20:54;;;;;;;17.40;16.53;;;2.60;81.50;;;;;;4958073;28;20046;-80
2022/01/24 07:23:20;;;;;;;17.43;16.57;;;2.50;81.50;;;;;;4953099;29;20039;-80
2022/01/24 07:25:46;;;;;;;16.40;15.60;;;2.50;81.50;;;;;;4965893;28;20035;-80
2022/01/24 07:28:13;;;;;;;15.50;14.80;;;2.50;81.50;;;;;;4956660;28;20466;-80
2022/01/24 07:30:39;;;;;;;16.50;15.70;;;2.50;82.20;;;;;;4956859;28;20043;-80
2022/01/24 07:33:06;;;;;;;16.93;16.13;;;2.50;81.40;;;;;;4935106;29;20474;-80
2022/01/24 07:35:32;;;;;;;18.27;17.30;;;2.60;81.50;;;;;;4936065;29;20059;-80
2022/01/24 07:37:59;;;;;;;17.80;16.90;;;2.60;81.50;;;;;;4944719;29;20066;-80
2022/01/24 07:40:25;;;;;;;19.20;18.10;;;2.60;81.50;;;;;;4950723;29;20047;-80
2022/01/24 07:43:09;;;;;;;18.03;16.63;;;2.60;81.40;;;;;;4926151;28;20118;-80
2022/01/24 07:45:35;;;;;;;17.83;16.37;;;2.60;81.40;;;;;;4955388;28;20512;-82
2022/01/24 07:48:01;;;;;;;19.10;17.87;;;2.60;81.30;;;;;;4954046;28;20030;-81
2022/01/24 07:50:28;;;;;;;17.63;16.30;;;2.50;81.30;;;;;;4919680;28;20043;-81
2022/01/24 07:52:55;;;;;;;14.77;14.07;;;2.50;81.30;;;;;;4969716;28;20486;-80
2022/01/24 07:55:22;;;;;;;17.40;16.50;;;2.50;81.40;;;;;;4961443;28;20031;-81
2022/01/24 07:57:48;;;;;;;16.53;15.77;;;2.50;81.40;;;;;;4956285;28;20034;-80
2022/01/24 08:00:14;;;;;;;17.07;16.17;;;2.50;81.50;;;;;;4957930;28;20036;-83
2022/01/24 08:02:40;;;;;;;17.43;16.53;;;2.40;81.40;;;;;;4927670;29;20359;-84
2022/01/24 08:05:07;;;;;;;17.13;16.30;;;2.40;81.40;;;;;;4953558;29;20541;-82
2022/01/24 08:07:33;;;;;;;16.97;16.17;;;2.50;81.10;;;;;;4941732;28;20043;-83
2022/01/24 08:09:59;;;;;;;16.30;15.50;;;2.50;81.30;;;;;;4949824;28;20023;-82
2022/01/24 08:12:26;;;;;;;17.80;16.80;;;2.50;81.30;;;;;;4937482;28;20046;-85
2022/01/24 08:14:52;;;;;;;16.07;15.27;;;2.50;81.30;;;;;;4934400;29;20035;-85
2022/01/24 08:17:19;;;;;;;16.83;16.03;;;2.50;81.30;;;;;;4933795;29;20034;-85
2022/01/24 08:19:45;;;;;;;17.30;16.13;;;2.50;81.30;;;;;;4951812;29;20035;-85
2022/01/24 08:22:13;;;;;;;14.90;14.20;;;2.50;81.30;;;;;;4952963;29;20043;-89
2022/01/24 08:24:39;;;;;;;17.47;16.30;;;2.50;81.50;;;;;;4947966;28;20039;-92
2022/01/24 08:27:05;;;;;;;16.77;15.90;;;2.70;81.60;;;;;;4946641;29;20370;-92
2022/01/24 08:29:31;;;;;;;17.03;15.77;;;3.00;81.60;;;;;;4943884;29;20035;-93
2022/01/24 08:32:00;;;;;;;16.00;15.30;;;3.20;81.10;;;;;;4960597;28;20043;-89
2022/01/24 08:34:26;;;;;;;16.67;15.70;;;3.30;80.80;;;;;;4943148;29;20048;-92
2022/01/24 08:36:53;;;;;;;15.90;15.20;;;3.50;80.70;;;;;;4942805;29;20027;-92
2022/01/24 08:39:20;;;;;;;17.43;16.63;;;3.60;80.70;;;;;;4944088;29;20039;-92
2022/01/24 08:44:33;;;;;;;17.30;16.50;;;3.90;80.30;;;;;;4959500;28;20047;-89
2022/01/24 08:46:59;;;;;;;17.93;17.03;;;4.10;81.00;;;;;;4926498;29;20397;-83
2022/01/24 08:49:25;;;;;;;16.80;16.00;;;4.20;80.10;;;;;;4950216;29;20023;-84
2022/01/24 08:51:51;;;;;;;17.87;16.93;;;4.10;79.70;;;;;;4950628;29;20039;-86
2022/01/24 08:54:17;;;;;;;17.77;16.87;;;4.00;79.70;;;;;;4931566;29;20109;-84
2022/01/24 08:56:45;;;;;;;18.40;17.50;;;3.90;80.00;;;;;;4950643;29;20275;-85
2022/01/24 08:59:12;;;;;;;18.83;17.83;;;3.70;80.20;;;;;;4952547;29;20031;-85
2022/01/24 09:01:38;;;;;;;19.13;18.03;;;3.60;80.40;;;;;;4943647;28;20038;-85
2022/01/24 09:04:04;;;;;;;18.60;17.60;;;3.60;80.60;;;;;;4940057;29;20039;-86
2022/01/24 09:06:30;;;;;;;17.60;16.70;;;3.50;80.70;;;;;;4934009;29;20031;-84
2022/01/24 09:09:00;;;;;;;17.23;16.43;;;3.50;80.80;;;;;;4951554;29;20027;-84
2022/01/24 09:11:32;;;;;;;17.20;16.40;;;3.50;80.80;;;;;;4952732;29;20430;-85
2022/01/24 09:13:58;;;;;;;17.50;16.17;;;3.50;80.80;;;;;;4933873;29;20039;-86
2022/01/24 09:16:24;;;;;;;18.77;17.37;;;3.50;80.80;;;;;;4957931;28;20035;-87
2022/01/24 09:18:51;;;;;;;18.67;17.20;;;3.50;80.80;;;;;;4936338;29;20035;-84
2022/01/24 09:21:17;;;;;;;17.73;16.80;;;3.50;80.70;;;;;;4953006;28;20054;-84
2022/01/24 09:23:43;;;;;;;17.67;16.83;;;3.50;80.80;;;;;;4949050;29;20032;-86
2022/01/24 09:26:11;;;;;;;17.03;16.23;;;3.60;80.80;;;;;;4936174;29;20410;-88
2022/01/24 09:28:37;;;;;;;17.97;17.07;;;3.60;80.80;;;;;;4952131;29;20458;-87
2022/01/24 09:31:04;;;;;;;18.10;17.20;;;3.70;80.70;;;;;;4949212;28;20051;-84
2022/01/24 09:33:30;;;;;;;18.70;17.80;;;3.70;80.60;;;;;;4965438;28;20047;-85
2022/01/24 09:35:59;;;;;;;18.87;17.90;;;3.90;80.50;;;;;;4951500;29;20058;-84
2022/01/24 09:38:29;;;;;;;16.40;15.60;;;4.10;80.00;;;;;;4949845;29;20501;-84
2022/01/24 09:40:55;;;;;;;18.67;17.77;;;4.40;79.40;;;;;;4975763;28;20046;-83
2022/01/24 09:43:21;;;;;;;16.90;16.10;;;4.50;78.90;;;;;;4953006;28;20047;-84
2022/01/24 09:45:47;;;;;;;18.43;17.63;;;4.60;78.60;;;;;;4950400;28;20042;-85
2022/01/24 09:48:14;;;;;;;17.90;17.03;;;4.70;78.50;;;;;;4929580;29;20031;-83
2022/01/24 09:50:40;;;;;;;18.10;17.17;;;4.70;78.50;;;;;;4952486;29;20081;-84
2022/01/24 09:53:06;;;;;;;19.17;17.80;;;4.80;78.60;;;;;;4967059;28;20043;-84
2022/01/24 09:55:32;;;;;;;18.67;17.80;;;4.90;78.20;;;;;;4953371;29;20394;-86
2022/01/24 09:57:59;;;;;;;20.70;19.70;;;5.10;78.20;;;;;;4960104;28;20035;-83
2022/01/24 10:00:26;;;;;;;22.17;20.60;;;5.20;77.90;;;;;;4943912;28;20394;-82
2022/01/24 10:02:52;;;;;;;19.77;18.77;;;5.30;77.60;;;;;;4973136;28;20050;-84
2022/01/24 10:05:30;;;;;;;17.70;16.90;;;5.50;77.30;;;;;;4949781;28;20032;-86
2022/01/24 10:08:01;;;;;;;17.53;16.73;;;5.50;77.00;;;;;;4955419;28;20367;-86
2022/01/24 10:10:45;;;;;;;17.45;16.65;;;5.40;77.10;;;;;;4954296;29;20023;-83
2022/01/24 10:16:24;;;;;;;20.23;19.13;;;5.30;78.10;;;;;;4955450;28;20645;-83
2022/01/24 10:19:00;;;;;;;17.50;16.70;;;5.50;78.00;;;;;;4970081;28;20433;-83
2022/01/24 10:21:27;;;;;;;18.20;17.30;;;5.70;77.40;;;;;;4954915;29;20414;-83
2022/01/24 10:23:54;;;;;;;17.20;16.40;;;5.80;77.10;;;;;;4938279;29;20043;-83
2022/01/24 10:26:20;;;;;;;21.07;19.50;;;5.70;77.10;;;;;;4954399;29;20035;-84
2022/01/24 10:28:46;;;;;;;18.70;17.80;;;5.60;77.20;;;;;;4945174;29;20367;-83
2022/01/24 10:31:18;;;;;;;18.43;17.53;;;5.60;77.70;;;;;;4951033;28;20035;-83
2022/01/24 10:34:22;;;;;;;18.37;17.47;;;5.70;77.80;;;;;;4968652;28;20041;-83
2022/01/24 10:36:50;;;;;;;19.93;18.93;;;5.70;77.60;;;;;;4959222;28;20524;-81
2022/01/24 10:39:20;;;;;;;19.97;18.87;;;5.60;77.60;;;;;;4960986;28;20027;-81
2022/01/24 10:41:57;;;;;;;19.17;18.27;;;5.60;77.80;;;;;;4954000;29;20047;-80
2022/01/24 10:44:34;;;;;;;18.33;17.53;;;5.60;77.90;;;;;;4928694;29;20398;-87
2022/01/24 10:47:13;;;;;;;20.23;19.23;;;5.60;77.90;;;;;;4952396;28;20039;-82
2022/01/24 10:49:40;;;;;;;18.33;17.53;;;5.70;78.00;;;;;;4954192;28;20043;-83
2022/01/24 10:52:19;;;;;;;19.43;18.53;;;5.60;77.90;;;;;;4951049;29;20043;-84
2022/01/24 10:54:49;;;;;;;18.23;17.43;;;5.60;77.80;;;;;;4964662;28;20310;-86
2022/01/24 10:57:26;;;;;;;19.80;18.80;;;5.50;77.80;;;;;;4951187;29;20038;-84
2022/01/24 11:00:20;;;;;;;19.37;18.47;;;5.50;78.00;;;;;;4946848;29;20042;-83
2022/01/24 11:02:50;;;;;;;24.07;22.97;;;5.50;77.90;;;;;;4950706;28;20067;-87
2022/01/24 11:05:20;;;;;;;20.03;18.73;;;5.60;78.00;;;;;;4954623;29;20034;-88
2022/01/24 11:07:57;;;;;;;18.80;17.90;;;5.50;77.80;;;;;;4952101;29;20645;-87
2022/01/24 11:10:25;;;;;;;19.60;18.70;;;5.50;77.90;;;;;;4948922;29;20027;-85
2022/01/24 11:12:52;;;;;;;19.50;18.60;;;5.50;78.10;;;;;;4950752;29;20031;-86
2022/01/24 11:15:20;;;;;;;21.53;20.17;;;5.60;78.00;;;;;;4950237;28;20474;-87
2022/01/24 11:17:47;;;;;;;21.33;20.03;;;5.80;77.70;;;;;;4936774;29;20406;-86
2022/01/24 11:20:16;;;;;;;19.20;18.30;;;5.90;77.20;;;;;;4938026;29;20506;-86
2022/01/24 11:22:46;;;;;;;18.97;18.07;;;5.90;76.90;;;;;;4964342;28;20043;-85
2022/01/24 11:25:13;;;;;;;18.83;17.93;;;5.90;76.80;;;;;;4947859;29;20031;-86
2022/01/24 11:27:43;;;;;;;18.87;17.87;;;6.00;76.80;;;;;;4955519;29;20486;-88
2022/01/24 11:30:12;;;;;;;18.87;17.90;;;6.00;76.70;;;;;;4955297;28;20038;-88
2022/01/24 11:32:42;;;;;;;19.17;18.20;;;6.00;76.70;;;;;;4955644;29;20031;-88
2022/01/24 11:35:08;;;;;;;20.53;19.07;;;6.00;77.00;;;;;;4952635;29;20031;-85
2022/01/24 11:37:42;;;;;;;19.67;18.77;;;6.00;76.80;;;;;;4953698;29;20038;-83
2022/01/24 11:40:15;;;;;;;18.50;17.67;;;6.10;76.80;;;;;;4963432;28;20381;-82
2022/01/24 11:42:44;;;;;;;18.80;17.90;;;6.20;76.70;;;;;;4952116;28;20038;-85
2022/01/24 11:45:14;;;;;;;23.83;22.67;;;6.20;76.60;;;;;;4948398;28;20043;-81
2022/01/24 11:47:41;;;;;;;20.07;19.07;;;6.10;76.50;;;;;;4948521;28;20039;-81
2022/01/24 11:50:36;;;;;;;21.27;20.20;;;6.00;76.60;;;;;;4953709;29;20047;-81
2022/01/24 11:53:19;;;;;;;19.20;18.30;;;5.90;76.90;;;;;;4967848;28;20035;-82
2022/01/24 11:55:45;;;;;;;19.57;18.47;;;5.80;76.80;;;;;;4943972;29;20031;-84
2022/01/24 11:58:11;;;;;;;20.03;18.73;;;5.90;77.00;;;;;;4945702;29;20035;-83
2022/01/24 12:00:44;;;;;;;19.43;18.53;;;5.90;76.90;;;;;;4959236;28;20410;-83
2022/01/24 12:03:23;;;;;;;19.30;18.40;;;5.90;76.70;;;;;;4952706;28;20047;-83
2022/01/24 12:05:53;;;;;;;18.50;17.60;;;5.90;76.70;;;;;;4950628;29;20035;-83
2022/01/24 12:08:28;;;;;;;19.40;18.50;;;5.90;76.70;;;;;;4952177;29;20043;-82
2022/01/24 12:10:58;;;;;;;21.03;19.80;;;5.90;76.90;;;;;;4954309;29;20051;-82
2022/01/24 12:13:29;;;;;;;18.63;17.73;;;5.90;76.70;;;;;;4942622;29;20410;-82
2022/01/24 12:16:03;;;;;;;18.80;17.90;;;5.80;76.60;;;;;;4946057;28;20047;-82
2022/01/24 12:18:33;;;;;;;20.20;19.20;;;5.80;76.80;;;;;;4950508;28;20151;-82
2022/01/24 12:21:05;;;;;;;21.15;19.55;;;5.80;76.80;;;;;;4953627;28;20043;-83
2022/01/24 12:23:38;;;;;;;21.00;19.73;;;5.70;76.80;;;;;;4953362;29;20035;-83
2022/01/24 12:26:09;;;;;;;19.03;18.13;;;5.70;77.00;;;;;;4952826;29;20381;-82
2022/01/24 12:28:41;;;;;;;19.10;18.20;;;5.70;76.90;;;;;;4936112;29;20039;-82
2022/01/24 12:31:33;;;;;;;19.63;18.63;;;5.70;76.90;;;;;;4946645;28;20043;-82
2022/01/24 12:34:08;;;;;;;17.50;16.70;;;5.70;76.90;;;;;;4947154;29;20043;-82
2022/01/24 12:36:59;;;;;;;19.50;18.40;;;5.70;77.10;;;;;;4946215;29;20027;-82
2022/01/24 12:39:27;;;;;;;18.30;17.50;;;5.70;77.00;;;;;;4944079;29;20039;-83
2022/01/24 12:41:59;;;;;;;17.50;16.70;;;5.60;76.80;;;;;;4951255;29;20054;-82
2022/01/24 12:47:14;;;;;;;20.30;19.10;;;5.70;76.90;;;;;;4954202;28;20051;-81
2022/01/24 12:49:41;;;;;;;19.23;18.23;;;5.80;76.90;;;;;;4967452;28;20047;-81
2022/01/24 12:52:13;;;;;;;18.80;17.90;;;5.80;76.70;;;;;;4948824;29;20505;-81
2022/01/24 12:54:41;;;;;;;20.97;19.70;;;5.80;76.80;;;;;;4946506;29;20028;-81
2022/01/24 12:57:14;;;;;;;19.27;18.37;;;5.80;76.70;;;;;;4949889;28;20046;-82
2022/01/24 12:59:49;;;;;;;19.10;18.20;;;5.80;76.70;;;;;;4939797;28;20034;-83
2022/01/24 13:02:22;;;;;;;19.47;18.57;;;5.70;76.80;;;;;;4956018;28;20038;-81
2022/01/24 13:04:51;;;;;;;18.43;17.63;;;5.80;76.80;;;;;;4951404;29;20058;-81
2022/01/24 13:07:17;;;;;;;18.33;17.43;;;5.90;76.70;;;;;;4950710;29;20038;-81
2022/01/24 13:09:43;;;;;;;19.57;18.53;;;6.00;76.60;;;;;;4949837;29;20042;-81
2022/01/24 13:12:10;;;;;;;18.40;17.50;;;6.10;76.50;;;;;;4946485;29;20036;-81
2022/01/24 13:25:13;;;;;;;19.90;18.95;;;6.30;75.90;;;;;;4950528;28;20042;-81
2022/01/24 13:27:48;;;;;;;21.23;20.23;;;6.20;75.80;;;;;;4951250;29;20047;-81
2022/01/24 13:30:35;;;;;;;19.90;18.90;;;6.20;76.20;;;;;;4949325;28;20024;-80
2022/01/24 13:33:02;;;;;;;19.70;18.60;;;6.00;76.30;;;;;;4947115;29;20043;-81
2022/01/24 13:35:30;;;;;;;19.20;18.30;;;6.00;76.50;;;;;;4966370;28;20027;-81
2022/01/24 13:38:02;;;;;;;18.93;18.03;;;6.00;76.70;;;;;;4967898;28;20046;-81
2022/01/24 13:40:43;;;;;;;20.73;19.20;;;6.10;76.80;;;;;;4950345;28;20047;-81
2022/01/24 13:43:09;;;;;;;;;;;6.10;76.50;;;;;;4965867;28;20058;-81
2022/01/24 13:45:39;;;;;;;20.00;18.93;;;6.10;76.50;;;;;;4952513;28;19916;-81
2022/01/24 13:48:15;;;;;;;19.13;18.23;;;6.10;76.40;;;;;;4947022;29;20019;-81
2022/01/24 13:50:50;;;;;;;20.63;19.33;;;6.10;76.60;;;;;;4939091;29;20047;-82
2022/01/24 13:53:33;;;;;;;20.43;19.23;;;6.10;76.60;;;;;;4937329;29;20039;-81
2022/01/24 13:56:00;;;;;;;17.90;17.10;;;6.20;76.60;;;;;;4972073;28;20027;-81
2022/01/24 13:58:27;;;;;;;20.50;19.23;;;6.20;76.50;;;;;;4947533;29;20035;-80
2022/01/24 14:00:59;;;;;;;18.17;17.37;;;6.20;76.40;;;;;;4947517;28;20050;-80
2022/01/24 14:03:26;;;;;;;17.90;17.10;;;6.10;76.50;;;;;;4958887;28;20054;-81
2022/01/24 14:06:14;;;;;;;18.93;18.00;;;6.00;76.60;;;;;;4954033;29;20032;-81
2022/01/24 14:08:41;;;;;;;19.30;18.30;;;6.00;76.70;;;;;;4938627;29;20498;-81
2022/01/24 14:11:14;;;;;;;19.43;18.17;;;6.00;76.90;;;;;;4953618;29;20035;-81
2022/01/24 14:13:48;;;;;;;19.97;18.60;;;5.90;76.90;;;;;;4954317;29;20052;-81
2022/01/24 14:16:36;;;;;;;18.60;17.70;;;6.00;76.90;;;;;;4935990;29;20031;-80
2022/01/24 14:19:03;;;;;;;19.00;18.10;;;6.00;77.00;;;;;;4944694;29;20333;-80
2022/01/24 14:21:29;;;;;;;17.73;16.93;;;6.00;76.90;;;;;;4953740;28;20515;-80
2022/01/24 14:23:55;;;;;;;18.60;17.70;;;6.00;77.00;;;;;;4954289;29;20031;-80
2022/01/24 14:26:25;;;;;;;18.10;17.30;;;5.90;76.80;;;;;;4955282;29;20038;-81
2022/01/24 14:29:04;;;;;;;18.40;17.50;;;5.90;76.90;;;;;;4955492;29;20035;-80
2022/01/24 14:31:31;;;;;;;18.90;18.00;;;5.90;77.10;;;;;;4950475;28;20027;-80
2022/01/24 14:34:02;;;;;;;18.53;17.60;;;5.90;77.00;;;;;;4949131;29;20104;-80
2022/01/24 14:36:28;;;;;;;;;;;5.90;77.00;;;;;;4951960;29;20363;-81
2022/01/24 14:39:00;;;;;;;19.00;18.00;;;5.90;76.90;;;;;;4952430;29;19918;-80
2022/01/24 14:41:37;;;;;;;19.57;18.27;;;5.90;76.90;;;;;;4954912;29;20046;-80
2022/01/24 14:46:50;;;;;;;17.40;16.60;;;5.80;77.00;;;;;;4954117;28;20034;-80
2022/01/24 14:49:19;;;;;;;16.23;15.47;;;5.70;77.10;;;;;;4951173;29;20501;-80